sensor_id;sensor_type;location;lat;lon;timestamp;temperature;humidity
37806;DHT22;25082;50.870;0.022;2023-12-29T00:00:09;19.60;65.80
37806;DHT22;25082;50.870;0.022;2023-12-29T00:02:35;19.50;65.80
37806;DHT22;25082;50.870;0.022;2023-12-29T00:05:01;19.50;65.80
37806;DHT22;25082;50.870;0.022;2023-12-29T00:07:27;19.50;65.70
37806;DHT22;25082;50.870;0.022;2023-12-29T00:09:53;19.50;65.70
37806;DHT22;25082;50.870;0.022;2023-12-29T00:12:19;19.50;65.80
37806;DHT22;25082;50.870;0.022;2023-12-29T00:14:45;19.50;65.80
37806;DHT22;25082;50.870;0.022;2023-12-29T00:17:10;19.50;65.60
37806;DHT22;25082;50.870;0.022;2023-12-29T00:19:36;19.50;65.80
37806;DHT22;25082;50.870;0.022;2023-12-29T00:22:02;19.50;65.50
37806;DHT22;25082;50.870;0.022;2023-12-29T00:24:29;19.50;65.60
37806;DHT22;25082;50.870;0.022;2023-12-29T00:26:57;19.50;65.50
37806;DHT22;25082;50.870;0.022;2023-12-29T00:29:24;19.50;65.60
37806;DHT22;25082;50.870;0.022;2023-12-29T00:31:50;19.50;65.50
37806;DHT22;25082;50.870;0.022;2023-12-29T00:34:15;19.50;65.50
37806;DHT22;25082;50.870;0.022;2023-12-29T00:36:41;19.50;65.30
37806;DHT22;25082;50.870;0.022;2023-12-29T00:39:07;19.40;65.30
37806;DHT22;25082;50.870;0.022;2023-12-29T00:41:33;19.50;65.30
37806;DHT22;25082;50.870;0.022;2023-12-29T00:43:58;19.50;65.30
37806;DHT22;25082;50.870;0.022;2023-12-29T00:46:24;19.40;65.30
37806;DHT22;25082;50.870;0.022;2023-12-29T00:48:50;19.40;65.30
37806;DHT22;25082;50.870;0.022;2023-12-29T00:51:15;19.40;65.30
37806;DHT22;25082;50.870;0.022;2023-12-29T00:53:41;19.40;65.30
37806;DHT22;25082;50.870;0.022;2023-12-29T00:56:11;19.40;65.30
37806;DHT22;25082;50.870;0.022;2023-12-29T00:58:37;19.40;65.30
37806;DHT22;25082;50.870;0.022;2023-12-29T01:01:05;19.40;65.40
37806;DHT22;25082;50.870;0.022;2023-12-29T01:03:31;19.40;65.30
37806;DHT22;25082;50.870;0.022;2023-12-29T01:05:56;19.40;65.30
37806;DHT22;25082;50.870;0.022;2023-12-29T01:08:22;19.40;65.40
37806;DHT22;25082;50.870;0.022;2023-12-29T01:10:48;19.40;65.40
37806;DHT22;25082;50.870;0.022;2023-12-29T01:13:13;19.40;65.40
37806;DHT22;25082;50.870;0.022;2023-12-29T01:15:39;19.40;65.50
37806;DHT22;25082;50.870;0.022;2023-12-29T01:18:09;19.40;65.40
37806;DHT22;25082;50.870;0.022;2023-12-29T01:20:35;19.40;65.40
37806;DHT22;25082;50.870;0.022;2023-12-29T01:23:01;19.40;65.40
37806;DHT22;25082;50.870;0.022;2023-12-29T01:25:27;19.40;65.40
37806;DHT22;25082;50.870;0.022;2023-12-29T01:27:52;19.40;65.50
37806;DHT22;25082;50.870;0.022;2023-12-29T01:30:18;19.40;65.40
37806;DHT22;25082;50.870;0.022;2023-12-29T01:32:44;19.30;65.40
37806;DHT22;25082;50.870;0.022;2023-12-29T01:35:09;19.30;65.50
37806;DHT22;25082;50.870;0.022;2023-12-29T01:37:35;19.30;65.50
37806;DHT22;25082;50.870;0.022;2023-12-29T01:40:01;19.30;65.40
37806;DHT22;25082;50.870;0.022;2023-12-29T01:42:27;19.30;65.40
37806;DHT22;25082;50.870;0.022;2023-12-29T01:44:53;19.30;65.40
37806;DHT22;25082;50.870;0.022;2023-12-29T01:47:21;19.30;65.40
37806;DHT22;25082;50.870;0.022;2023-12-29T01:49:48;19.30;65.30
37806;DHT22;25082;50.870;0.022;2023-12-29T01:52:16;19.30;65.30
37806;DHT22;25082;50.870;0.022;2023-12-29T01:54:43;19.30;65.40
37806;DHT22;25082;50.870;0.022;2023-12-29T01:57:11;19.30;65.40
37806;DHT22;25082;50.870;0.022;2023-12-29T01:59:37;19.30;65.30
37806;DHT22;25082;50.870;0.022;2023-12-29T02:02:06;19.30;65.40
37806;DHT22;25082;50.870;0.022;2023-12-29T02:04:33;19.30;65.40
37806;DHT22;25082;50.870;0.022;2023-12-29T02:06:59;19.30;65.40
37806;DHT22;25082;50.870;0.022;2023-12-29T02:09:25;19.30;65.50
37806;DHT22;25082;50.870;0.022;2023-12-29T02:11:51;19.30;65.50
37806;DHT22;25082;50.870;0.022;2023-12-29T02:14:18;19.30;65.50
37806;DHT22;25082;50.870;0.022;2023-12-29T02:19:42;19.30;65.50
37806;DHT22;25082;50.870;0.022;2023-12-29T02:22:10;19.30;65.50
37806;DHT22;25082;50.870;0.022;2023-12-29T02:24:37;19.30;65.50
37806;DHT22;25082;50.870;0.022;2023-12-29T02:29:54;19.20;65.40
37806;DHT22;25082;50.870;0.022;2023-12-29T02:32:22;19.30;65.50
37806;DHT22;25082;50.870;0.022;2023-12-29T02:34:50;19.20;65.50
37806;DHT22;25082;50.870;0.022;2023-12-29T02:37:18;19.30;65.60
37806;DHT22;25082;50.870;0.022;2023-12-29T02:39:44;19.20;65.50
37806;DHT22;25082;50.870;0.022;2023-12-29T02:42:10;19.20;65.50
37806;DHT22;25082;50.870;0.022;2023-12-29T02:44:36;19.20;65.50
37806;DHT22;25082;50.870;0.022;2023-12-29T02:47:02;19.20;65.50
37806;DHT22;25082;50.870;0.022;2023-12-29T02:49:29;19.20;65.50
37806;DHT22;25082;50.870;0.022;2023-12-29T02:51:55;19.20;65.50
37806;DHT22;25082;50.870;0.022;2023-12-29T02:54:21;19.20;65.50
37806;DHT22;25082;50.870;0.022;2023-12-29T02:56:46;19.20;65.50
37806;DHT22;25082;50.870;0.022;2023-12-29T02:59:12;19.20;65.60
37806;DHT22;25082;50.870;0.022;2023-12-29T03:01:38;19.20;65.60
37806;DHT22;25082;50.870;0.022;2023-12-29T03:04:04;19.20;65.50
37806;DHT22;25082;50.870;0.022;2023-12-29T03:06:30;19.20;65.60
37806;DHT22;25082;50.870;0.022;2023-12-29T03:08:55;19.20;65.60
37806;DHT22;25082;50.870;0.022;2023-12-29T03:11:21;19.20;65.60
37806;DHT22;25082;50.870;0.022;2023-12-29T03:13:47;19.20;65.60
37806;DHT22;25082;50.870;0.022;2023-12-29T03:16:12;19.20;65.70
37806;DHT22;25082;50.870;0.022;2023-12-29T03:18:38;19.20;65.60
37806;DHT22;25082;50.870;0.022;2023-12-29T03:21:06;19.20;65.70
37806;DHT22;25082;50.870;0.022;2023-12-29T03:23:33;19.10;65.60
37806;DHT22;25082;50.870;0.022;2023-12-29T03:25:59;19.10;65.60
37806;DHT22;25082;50.870;0.022;2023-12-29T03:28:25;19.10;65.70
37806;DHT22;25082;50.870;0.022;2023-12-29T03:30:51;19.10;65.70
37806;DHT22;25082;50.870;0.022;2023-12-29T03:33:16;19.10;65.60
37806;DHT22;25082;50.870;0.022;2023-12-29T03:35:42;19.10;65.60
37806;DHT22;25082;50.870;0.022;2023-12-29T03:38:08;19.10;65.70
37806;DHT22;25082;50.870;0.022;2023-12-29T03:40:34;19.10;65.70
37806;DHT22;25082;50.870;0.022;2023-12-29T03:42:59;19.10;65.70
37806;DHT22;25082;50.870;0.022;2023-12-29T03:45:25;19.10;65.70
37806;DHT22;25082;50.870;0.022;2023-12-29T03:47:51;19.10;65.70
37806;DHT22;25082;50.870;0.022;2023-12-29T03:50:16;19.10;65.70
37806;DHT22;25082;50.870;0.022;2023-12-29T03:52:42;19.10;65.70
37806;DHT22;25082;50.870;0.022;2023-12-29T03:55:08;19.10;65.70
37806;DHT22;25082;50.870;0.022;2023-12-29T03:57:34;19.10;65.70
37806;DHT22;25082;50.870;0.022;2023-12-29T03:59:59;19.10;65.70
37806;DHT22;25082;50.870;0.022;2023-12-29T04:02:25;19.10;65.70
37806;DHT22;25082;50.870;0.022;2023-12-29T04:04:51;19.10;65.70
37806;DHT22;25082;50.870;0.022;2023-12-29T04:07:16;19.10;65.70
37806;DHT22;25082;50.870;0.022;2023-12-29T04:09:42;19.00;65.60
37806;DHT22;25082;50.870;0.022;2023-12-29T04:12:08;19.00;65.60
37806;DHT22;25082;50.870;0.022;2023-12-29T04:14:34;19.10;65.70
37806;DHT22;25082;50.870;0.022;2023-12-29T04:16:59;19.00;65.60
37806;DHT22;25082;50.870;0.022;2023-12-29T04:19:28;19.10;65.80
37806;DHT22;25082;50.870;0.022;2023-12-29T04:21:54;19.00;65.60
37806;DHT22;25082;50.870;0.022;2023-12-29T04:24:20;19.10;65.70
37806;DHT22;25082;50.870;0.022;2023-12-29T04:26:45;19.00;65.60
37806;DHT22;25082;50.870;0.022;2023-12-29T04:29:11;19.00;65.60
37806;DHT22;25082;50.870;0.022;2023-12-29T04:31:37;19.00;65.60
37806;DHT22;25082;50.870;0.022;2023-12-29T04:34:03;19.00;65.60
37806;DHT22;25082;50.870;0.022;2023-12-29T04:36:28;19.00;65.70
37806;DHT22;25082;50.870;0.022;2023-12-29T04:38:54;19.00;65.70
37806;DHT22;25082;50.870;0.022;2023-12-29T04:41:20;19.00;65.70
37806;DHT22;25082;50.870;0.022;2023-12-29T04:43:45;19.00;65.70
37806;DHT22;25082;50.870;0.022;2023-12-29T04:46:11;19.00;65.70
37806;DHT22;25082;50.870;0.022;2023-12-29T04:48:37;19.00;65.70
37806;DHT22;25082;50.870;0.022;2023-12-29T04:51:03;19.00;65.70
37806;DHT22;25082;50.870;0.022;2023-12-29T04:53:29;19.00;65.70
37806;DHT22;25082;50.870;0.022;2023-12-29T04:55:54;19.00;65.70
37806;DHT22;25082;50.870;0.022;2023-12-29T04:58:20;19.00;65.70
37806;DHT22;25082;50.870;0.022;2023-12-29T05:00:46;19.00;65.70
37806;DHT22;25082;50.870;0.022;2023-12-29T05:03:12;19.00;65.70
37806;DHT22;25082;50.870;0.022;2023-12-29T05:05:38;19.00;65.70
37806;DHT22;25082;50.870;0.022;2023-12-29T05:08:04;19.00;65.70
37806;DHT22;25082;50.870;0.022;2023-12-29T05:10:29;19.00;65.80
37806;DHT22;25082;50.870;0.022;2023-12-29T05:12:55;18.90;65.70
37806;DHT22;25082;50.870;0.022;2023-12-29T05:15:21;19.00;65.70
37806;DHT22;25082;50.870;0.022;2023-12-29T05:17:47;18.90;65.70
37806;DHT22;25082;50.870;0.022;2023-12-29T05:20:12;19.00;65.70
37806;DHT22;25082;50.870;0.022;2023-12-29T05:22:38;18.90;65.70
37806;DHT22;25082;50.870;0.022;2023-12-29T05:25:04;18.90;65.70
37806;DHT22;25082;50.870;0.022;2023-12-29T05:27:30;18.90;65.70
37806;DHT22;25082;50.870;0.022;2023-12-29T05:29:57;18.90;65.70
37806;DHT22;25082;50.870;0.022;2023-12-29T05:32:22;18.90;65.70
37806;DHT22;25082;50.870;0.022;2023-12-29T05:34:48;18.90;65.70
37806;DHT22;25082;50.870;0.022;2023-12-29T05:37:14;18.90;65.80
37806;DHT22;25082;50.870;0.022;2023-12-29T05:39:43;18.90;65.80
37806;DHT22;25082;50.870;0.022;2023-12-29T05:42:08;18.90;65.70
37806;DHT22;25082;50.870;0.022;2023-12-29T05:44:37;18.90;65.70
37806;DHT22;25082;50.870;0.022;2023-12-29T05:47:04;18.90;65.70
37806;DHT22;25082;50.870;0.022;2023-12-29T05:49:30;18.90;65.70
37806;DHT22;25082;50.870;0.022;2023-12-29T05:51:57;18.90;65.70
37806;DHT22;25082;50.870;0.022;2023-12-29T05:54:23;18.90;65.70
37806;DHT22;25082;50.870;0.022;2023-12-29T05:56:50;18.90;65.70
37806;DHT22;25082;50.870;0.022;2023-12-29T05:59:15;18.90;65.70
37806;DHT22;25082;50.870;0.022;2023-12-29T06:01:41;18.90;65.70
37806;DHT22;25082;50.870;0.022;2023-12-29T06:04:07;18.80;65.70
37806;DHT22;25082;50.870;0.022;2023-12-29T06:06:33;18.80;65.70
37806;DHT22;25082;50.870;0.022;2023-12-29T06:08:58;18.80;65.70
37806;DHT22;25082;50.870;0.022;2023-12-29T06:11:24;18.90;65.80
37806;DHT22;25082;50.870;0.022;2023-12-29T06:13:50;18.80;65.70
37806;DHT22;25082;50.870;0.022;2023-12-29T06:16:21;18.80;65.70
37806;DHT22;25082;50.870;0.022;2023-12-29T06:18:47;18.80;65.70
37806;DHT22;25082;50.870;0.022;2023-12-29T06:21:13;18.80;65.70
37806;DHT22;25082;50.870;0.022;2023-12-29T06:23:39;18.80;65.70
37806;DHT22;25082;50.870;0.022;2023-12-29T06:26:05;18.80;65.70
37806;DHT22;25082;50.870;0.022;2023-12-29T06:28:30;18.80;65.70
37806;DHT22;25082;50.870;0.022;2023-12-29T06:30:56;18.70;65.60
37806;DHT22;25082;50.870;0.022;2023-12-29T06:33:22;18.80;65.70
37806;DHT22;25082;50.870;0.022;2023-12-29T06:35:48;18.80;65.70
37806;DHT22;25082;50.870;0.022;2023-12-29T06:38:14;18.80;65.70
37806;DHT22;25082;50.870;0.022;2023-12-29T06:40:40;18.80;65.70
37806;DHT22;25082;50.870;0.022;2023-12-29T06:43:05;18.80;65.70
37806;DHT22;25082;50.870;0.022;2023-12-29T06:45:31;18.80;65.70
37806;DHT22;25082;50.870;0.022;2023-12-29T06:47:57;18.80;65.70
37806;DHT22;25082;50.870;0.022;2023-12-29T06:50:23;18.80;65.80
37806;DHT22;25082;50.870;0.022;2023-12-29T06:52:49;18.80;65.80
37806;DHT22;25082;50.870;0.022;2023-12-29T06:55:15;18.80;65.80
37806;DHT22;25082;50.870;0.022;2023-12-29T06:57:40;18.80;65.80
37806;DHT22;25082;50.870;0.022;2023-12-29T07:00:06;18.80;65.80
37806;DHT22;25082;50.870;0.022;2023-12-29T07:02:32;18.70;65.80
37806;DHT22;25082;50.870;0.022;2023-12-29T07:04:58;18.80;65.80
37806;DHT22;25082;50.870;0.022;2023-12-29T07:07:24;18.70;65.80
37806;DHT22;25082;50.870;0.022;2023-12-29T07:09:50;18.80;65.90
37806;DHT22;25082;50.870;0.022;2023-12-29T07:12:16;18.80;65.90
37806;DHT22;25082;50.870;0.022;2023-12-29T07:14:42;18.80;65.80
37806;DHT22;25082;50.870;0.022;2023-12-29T07:17:08;18.70;65.70
37806;DHT22;25082;50.870;0.022;2023-12-29T07:19:33;18.80;65.80
37806;DHT22;25082;50.870;0.022;2023-12-29T07:22:06;18.80;65.70
37806;DHT22;25082;50.870;0.022;2023-12-29T07:24:32;18.80;65.70
37806;DHT22;25082;50.870;0.022;2023-12-29T07:26:58;18.80;65.70
37806;DHT22;25082;50.870;0.022;2023-12-29T07:29:24;18.90;65.80
37806;DHT22;25082;50.870;0.022;2023-12-29T07:31:50;18.90;65.70
37806;DHT22;25082;50.870;0.022;2023-12-29T07:34:16;18.90;65.70
37806;DHT22;25082;50.870;0.022;2023-12-29T07:36:41;18.90;65.70
37806;DHT22;25082;50.870;0.022;2023-12-29T07:39:08;18.90;65.80
37806;DHT22;25082;50.870;0.022;2023-12-29T07:41:39;18.90;65.80
37806;DHT22;25082;50.870;0.022;2023-12-29T07:44:06;18.90;65.80
37806;DHT22;25082;50.870;0.022;2023-12-29T07:46:32;18.90;65.80
37806;DHT22;25082;50.870;0.022;2023-12-29T07:48:58;19.00;65.90
37806;DHT22;25082;50.870;0.022;2023-12-29T07:51:23;18.90;65.90
37806;DHT22;25082;50.870;0.022;2023-12-29T07:53:49;19.00;65.90
37806;DHT22;25082;50.870;0.022;2023-12-29T07:56:15;19.00;65.90
37806;DHT22;25082;50.870;0.022;2023-12-29T07:58:41;19.00;65.90
37806;DHT22;25082;50.870;0.022;2023-12-29T08:01:06;19.00;65.90
37806;DHT22;25082;50.870;0.022;2023-12-29T08:03:32;19.00;65.90
37806;DHT22;25082;50.870;0.022;2023-12-29T08:05:58;19.00;66.00
37806;DHT22;25082;50.870;0.022;2023-12-29T08:08:23;19.00;66.00
37806;DHT22;25082;50.870;0.022;2023-12-29T08:10:49;19.00;66.00
37806;DHT22;25082;50.870;0.022;2023-12-29T08:13:15;19.00;66.00
37806;DHT22;25082;50.870;0.022;2023-12-29T08:15:41;19.00;66.00
37806;DHT22;25082;50.870;0.022;2023-12-29T08:18:08;19.00;66.10
37806;DHT22;25082;50.870;0.022;2023-12-29T08:20:34;19.00;66.10
37806;DHT22;25082;50.870;0.022;2023-12-29T08:23:01;19.00;66.60
37806;DHT22;25082;50.870;0.022;2023-12-29T08:25:29;19.00;66.10
37806;DHT22;25082;50.870;0.022;2023-12-29T08:27:56;19.10;66.20
37806;DHT22;25082;50.870;0.022;2023-12-29T08:30:21;19.10;66.20
37806;DHT22;25082;50.870;0.022;2023-12-29T08:32:47;19.10;66.30
37806;DHT22;25082;50.870;0.022;2023-12-29T08:35:13;19.10;66.30
37806;DHT22;25082;50.870;0.022;2023-12-29T08:37:39;19.10;66.30
37806;DHT22;25082;50.870;0.022;2023-12-29T08:40:05;19.10;66.40
37806;DHT22;25082;50.870;0.022;2023-12-29T08:42:32;19.10;66.30
37806;DHT22;25082;50.870;0.022;2023-12-29T08:44:59;19.10;66.30
37806;DHT22;25082;50.870;0.022;2023-12-29T08:47:25;19.10;66.30
37806;DHT22;25082;50.870;0.022;2023-12-29T08:49:51;19.10;66.30
37806;DHT22;25082;50.870;0.022;2023-12-29T08:52:20;19.10;66.30
37806;DHT22;25082;50.870;0.022;2023-12-29T08:54:45;19.10;66.30
37806;DHT22;25082;50.870;0.022;2023-12-29T08:57:11;19.10;66.30
37806;DHT22;25082;50.870;0.022;2023-12-29T08:59:37;19.10;66.30
37806;DHT22;25082;50.870;0.022;2023-12-29T09:02:03;19.10;66.30
37806;DHT22;25082;50.870;0.022;2023-12-29T09:04:29;19.10;66.30
37806;DHT22;25082;50.870;0.022;2023-12-29T09:06:55;19.20;66.30
37806;DHT22;25082;50.870;0.022;2023-12-29T09:09:21;19.10;66.30
37806;DHT22;25082;50.870;0.022;2023-12-29T09:11:46;19.20;66.40
37806;DHT22;25082;50.870;0.022;2023-12-29T09:14:13;19.20;66.40
37806;DHT22;25082;50.870;0.022;2023-12-29T09:16:38;19.20;66.40
37806;DHT22;25082;50.870;0.022;2023-12-29T09:19:05;19.20;66.40
37806;DHT22;25082;50.870;0.022;2023-12-29T09:21:31;19.20;66.40
37806;DHT22;25082;50.870;0.022;2023-12-29T09:23:57;19.20;66.40
37806;DHT22;25082;50.870;0.022;2023-12-29T09:26:24;19.20;66.40
37806;DHT22;25082;50.870;0.022;2023-12-29T09:28:49;19.20;66.40
37806;DHT22;25082;50.870;0.022;2023-12-29T09:31:15;19.20;66.40
37806;DHT22;25082;50.870;0.022;2023-12-29T09:33:41;19.20;66.40
37806;DHT22;25082;50.870;0.022;2023-12-29T09:36:07;19.20;66.50
37806;DHT22;25082;50.870;0.022;2023-12-29T09:38:33;19.20;66.50
37806;DHT22;25082;50.870;0.022;2023-12-29T09:41:05;19.20;66.50
37806;DHT22;25082;50.870;0.022;2023-12-29T09:43:35;19.20;66.50
37806;DHT22;25082;50.870;0.022;2023-12-29T09:46:02;19.30;66.50
37806;DHT22;25082;50.870;0.022;2023-12-29T09:48:52;19.20;66.50
37806;DHT22;25082;50.870;0.022;2023-12-29T09:51:19;19.30;66.60
37806;DHT22;25082;50.870;0.022;2023-12-29T09:53:48;19.30;66.60
37806;DHT22;25082;50.870;0.022;2023-12-29T09:56:16;19.20;66.50
37806;DHT22;25082;50.870;0.022;2023-12-29T09:58:43;19.30;66.70
37806;DHT22;25082;50.870;0.022;2023-12-29T10:01:10;19.30;66.60
37806;DHT22;25082;50.870;0.022;2023-12-29T10:03:36;19.30;66.60
37806;DHT22;25082;50.870;0.022;2023-12-29T10:06:06;19.30;66.50
37806;DHT22;25082;50.870;0.022;2023-12-29T10:08:34;19.30;66.50
37806;DHT22;25082;50.870;0.022;2023-12-29T10:11:26;19.30;66.50
37806;DHT22;25082;50.870;0.022;2023-12-29T10:13:54;19.30;66.50
37806;DHT22;25082;50.870;0.022;2023-12-29T10:16:39;19.30;66.50
37806;DHT22;25082;50.870;0.022;2023-12-29T10:24:34;19.40;66.60
37806;DHT22;25082;50.870;0.022;2023-12-29T10:27:00;19.40;66.60
37806;DHT22;25082;50.870;0.022;2023-12-29T10:29:27;19.40;66.70
37806;DHT22;25082;50.870;0.022;2023-12-29T10:31:53;19.40;66.70
37806;DHT22;25082;50.870;0.022;2023-12-29T10:34:25;19.40;66.80
37806;DHT22;25082;50.870;0.022;2023-12-29T10:37:00;19.40;66.60
37806;DHT22;25082;50.870;0.022;2023-12-29T10:39:35;19.40;66.60
37806;DHT22;25082;50.870;0.022;2023-12-29T10:42:06;19.40;66.60
37806;DHT22;25082;50.870;0.022;2023-12-29T10:44:34;19.40;66.50
37806;DHT22;25082;50.870;0.022;2023-12-29T10:47:08;19.40;66.50
37806;DHT22;25082;50.870;0.022;2023-12-29T10:49:34;19.40;66.50
37806;DHT22;25082;50.870;0.022;2023-12-29T10:52:01;19.40;66.50
37806;DHT22;25082;50.870;0.022;2023-12-29T10:54:36;19.50;66.50
37806;DHT22;25082;50.870;0.022;2023-12-29T10:57:02;19.50;66.50
37806;DHT22;25082;50.870;0.022;2023-12-29T10:59:28;19.50;66.50
37806;DHT22;25082;50.870;0.022;2023-12-29T11:01:54;19.50;66.50
37806;DHT22;25082;50.870;0.022;2023-12-29T11:04:22;19.50;66.60
37806;DHT22;25082;50.870;0.022;2023-12-29T11:06:49;19.50;66.50
37806;DHT22;25082;50.870;0.022;2023-12-29T11:09:29;19.50;66.50
37806;DHT22;25082;50.870;0.022;2023-12-29T11:12:00;19.50;66.50
37806;DHT22;25082;50.870;0.022;2023-12-29T11:14:26;19.50;66.40
37806;DHT22;25082;50.870;0.022;2023-12-29T11:16:54;19.50;66.40
37806;DHT22;25082;50.870;0.022;2023-12-29T11:19:21;19.50;66.30
37806;DHT22;25082;50.870;0.022;2023-12-29T11:21:51;19.60;66.40
37806;DHT22;25082;50.870;0.022;2023-12-29T11:24:19;19.60;66.40
37806;DHT22;25082;50.870;0.022;2023-12-29T11:26:44;19.60;66.30
37806;DHT22;25082;50.870;0.022;2023-12-29T11:29:11;19.60;66.30
37806;DHT22;25082;50.870;0.022;2023-12-29T11:31:41;19.70;66.30
37806;DHT22;25082;50.870;0.022;2023-12-29T11:34:12;19.70;66.30
37806;DHT22;25082;50.870;0.022;2023-12-29T11:36:45;19.70;66.30
37806;DHT22;25082;50.870;0.022;2023-12-29T11:42:20;19.70;66.20
37806;DHT22;25082;50.870;0.022;2023-12-29T11:44:48;19.70;66.20
37806;DHT22;25082;50.870;0.022;2023-12-29T11:47:35;19.80;66.30
37806;DHT22;25082;50.870;0.022;2023-12-29T11:50:02;19.80;66.30
37806;DHT22;25082;50.870;0.022;2023-12-29T11:52:40;19.80;66.30
37806;DHT22;25082;50.870;0.022;2023-12-29T11:55:13;19.80;66.30
37806;DHT22;25082;50.870;0.022;2023-12-29T11:57:40;19.70;66.30
37806;DHT22;25082;50.870;0.022;2023-12-29T12:00:08;19.70;66.30
37806;DHT22;25082;50.870;0.022;2023-12-29T12:02:33;19.70;66.30
37806;DHT22;25082;50.870;0.022;2023-12-29T12:04:59;19.70;66.30
37806;DHT22;25082;50.870;0.022;2023-12-29T12:09:51;19.70;66.40
37806;DHT22;25082;50.870;0.022;2023-12-29T12:12:54;19.70;66.40
37806;DHT22;25082;50.870;0.022;2023-12-29T12:17:57;19.70;66.40
37806;DHT22;25082;50.870;0.022;2023-12-29T12:20:23;19.60;66.40
37806;DHT22;25082;50.870;0.022;2023-12-29T12:22:58;19.70;66.50
37806;DHT22;25082;50.870;0.022;2023-12-29T12:25:29;19.70;66.50
37806;DHT22;25082;50.870;0.022;2023-12-29T12:27:56;19.70;66.40
37806;DHT22;25082;50.870;0.022;2023-12-29T12:30:22;19.70;66.30
37806;DHT22;25082;50.870;0.022;2023-12-29T12:33:01;19.80;66.30
37806;DHT22;25082;50.870;0.022;2023-12-29T12:35:28;19.80;66.10
37806;DHT22;25082;50.870;0.022;2023-12-29T12:38:13;19.80;66.00
37806;DHT22;25082;50.870;0.022;2023-12-29T12:40:39;19.80;66.00
37806;DHT22;25082;50.870;0.022;2023-12-29T12:43:06;19.80;66.10
37806;DHT22;25082;50.870;0.022;2023-12-29T12:45:41;19.80;66.10
37806;DHT22;25082;50.870;0.022;2023-12-29T12:50:56;20.00;66.20
37806;DHT22;25082;50.870;0.022;2023-12-29T12:53:24;20.30;65.80
37806;DHT22;25082;50.870;0.022;2023-12-29T12:55:50;20.60;64.70
37806;DHT22;25082;50.870;0.022;2023-12-29T12:58:20;20.80;63.80
37806;DHT22;25082;50.870;0.022;2023-12-29T13:00:46;21.00;63.30
37806;DHT22;25082;50.870;0.022;2023-12-29T13:03:13;21.10;62.80
37806;DHT22;25082;50.870;0.022;2023-12-29T13:05:40;21.70;62.20
37806;DHT22;25082;50.870;0.022;2023-12-29T13:08:07;22.30;60.40
37806;DHT22;25082;50.870;0.022;2023-12-29T13:10:33;22.60;58.60
37806;DHT22;25082;50.870;0.022;2023-12-29T13:12:59;22.90;58.10
37806;DHT22;25082;50.870;0.022;2023-12-29T13:15:25;23.30;57.00
37806;DHT22;25082;50.870;0.022;2023-12-29T13:17:54;24.00;55.40
37806;DHT22;25082;50.870;0.022;2023-12-29T13:20:20;24.50;53.80
37806;DHT22;25082;50.870;0.022;2023-12-29T13:22:49;24.80;52.80
37806;DHT22;25082;50.870;0.022;2023-12-29T13:25:24;25.00;52.00
37806;DHT22;25082;50.870;0.022;2023-12-29T13:27:51;24.90;52.10
37806;DHT22;25082;50.870;0.022;2023-12-29T13:30:19;24.80;52.50
37806;DHT22;25082;50.870;0.022;2023-12-29T13:32:46;24.70;52.70
37806;DHT22;25082;50.870;0.022;2023-12-29T13:35:26;24.70;52.70
37806;DHT22;25082;50.870;0.022;2023-12-29T13:38:11;24.60;52.60
37806;DHT22;25082;50.870;0.022;2023-12-29T13:40:53;24.30;53.20
37806;DHT22;25082;50.870;0.022;2023-12-29T13:43:20;23.80;54.40
37806;DHT22;25082;50.870;0.022;2023-12-29T13:45:47;23.20;55.90
37806;DHT22;25082;50.870;0.022;2023-12-29T13:48:14;22.70;57.30
37806;DHT22;25082;50.870;0.022;2023-12-29T13:50:48;22.40;58.30
37806;DHT22;25082;50.870;0.022;2023-12-29T13:53:18;22.10;59.30
37806;DHT22;25082;50.870;0.022;2023-12-29T13:55:44;21.80;60.00
37806;DHT22;25082;50.870;0.022;2023-12-29T13:58:10;21.60;60.70
37806;DHT22;25082;50.870;0.022;2023-12-29T14:00:37;21.40;61.30
37806;DHT22;25082;50.870;0.022;2023-12-29T14:03:22;21.20;61.70
37806;DHT22;25082;50.870;0.022;2023-12-29T14:05:55;21.10;62.10
37806;DHT22;25082;50.870;0.022;2023-12-29T14:08:44;21.10;62.40
37806;DHT22;25082;50.870;0.022;2023-12-29T14:11:11;21.00;62.50
37806;DHT22;25082;50.870;0.022;2023-12-29T14:13:43;21.00;62.60
37806;DHT22;25082;50.870;0.022;2023-12-29T14:16:10;20.90;62.00
37806;DHT22;25082;50.870;0.022;2023-12-29T14:21:30;20.90;62.70
37806;DHT22;25082;50.870;0.022;2023-12-29T14:24:09;20.90;62.80
37806;DHT22;25082;50.870;0.022;2023-12-29T14:26:54;20.80;62.90
37806;DHT22;25082;50.870;0.022;2023-12-29T14:29:22;20.80;63.10
37806;DHT22;25082;50.870;0.022;2023-12-29T14:31:49;20.80;63.20
37806;DHT22;25082;50.870;0.022;2023-12-29T14:34:19;20.70;63.40
37806;DHT22;25082;50.870;0.022;2023-12-29T14:36:45;20.70;63.70
37806;DHT22;25082;50.870;0.022;2023-12-29T14:39:14;20.70;63.70
37806;DHT22;25082;50.870;0.022;2023-12-29T14:41:41;20.60;63.70
37806;DHT22;25082;50.870;0.022;2023-12-29T14:44:07;20.60;63.80
37806;DHT22;25082;50.870;0.022;2023-12-29T14:46:34;20.60;63.90
37806;DHT22;25082;50.870;0.022;2023-12-29T14:49:02;20.60;64.00
37806;DHT22;25082;50.870;0.022;2023-12-29T14:51:28;20.60;64.10
37806;DHT22;25082;50.870;0.022;2023-12-29T14:53:55;20.50;64.10
37806;DHT22;25082;50.870;0.022;2023-12-29T14:56:21;20.50;64.10
37806;DHT22;25082;50.870;0.022;2023-12-29T14:58:46;20.50;64.20
37806;DHT22;25082;50.870;0.022;2023-12-29T15:01:12;20.50;64.20
37806;DHT22;25082;50.870;0.022;2023-12-29T15:03:38;20.50;64.20
37806;DHT22;25082;50.870;0.022;2023-12-29T15:06:05;20.50;64.20
37806;DHT22;25082;50.870;0.022;2023-12-29T15:08:31;20.50;64.30
37806;DHT22;25082;50.870;0.022;2023-12-29T15:11:04;20.40;64.20
37806;DHT22;25082;50.870;0.022;2023-12-29T15:13:31;20.40;64.30
37806;DHT22;25082;50.870;0.022;2023-12-29T15:15:58;20.40;64.30
37806;DHT22;25082;50.870;0.022;2023-12-29T15:18:28;20.40;64.30
37806;DHT22;25082;50.870;0.022;2023-12-29T15:20:56;20.40;64.40
37806;DHT22;25082;50.870;0.022;2023-12-29T15:23:22;20.30;64.30
37806;DHT22;25082;50.870;0.022;2023-12-29T15:25:49;20.30;64.40
37806;DHT22;25082;50.870;0.022;2023-12-29T15:28:16;20.30;64.30
37806;DHT22;25082;50.870;0.022;2023-12-29T15:30:45;20.30;64.50
37806;DHT22;25082;50.870;0.022;2023-12-29T15:33:11;20.30;64.40
37806;DHT22;25082;50.870;0.022;2023-12-29T15:35:39;20.30;64.50
37806;DHT22;25082;50.870;0.022;2023-12-29T15:38:06;20.30;64.50
37806;DHT22;25082;50.870;0.022;2023-12-29T15:40:32;20.30;64.60
37806;DHT22;25082;50.870;0.022;2023-12-29T15:42:58;20.30;64.60
37806;DHT22;25082;50.870;0.022;2023-12-29T15:45:24;20.20;64.60
37806;DHT22;25082;50.870;0.022;2023-12-29T15:47:50;20.20;64.60
37806;DHT22;25082;50.870;0.022;2023-12-29T15:50:16;20.20;64.60
37806;DHT22;25082;50.870;0.022;2023-12-29T15:52:41;20.20;64.60
37806;DHT22;25082;50.870;0.022;2023-12-29T15:55:07;20.20;64.60